Time;durP1;ratioP1;P1;durP2;ratioP2;P2;SDS_P1;SDS_P2;PMS_P1;PMS_P2;Temp;Humidity;BMP_temperature;BMP_pressure;BME280_temperature;BME280_humidity;BME280_pressure;Samples;Min_cycle;Max_cycle;Signal;HPM_P1;HPM_P2
2023/08/18 00:07:56;;;;;;;4.05;1.60;;;;;;;;;;20924449;28;20167;-62
2023/08/18 00:17:57;;;;;;;2.97;1.73;;;;;;;;;;20923478;28;20053;-61
2023/08/18 00:27:58;;;;;;;2.40;1.30;;;;;;;;;;20922781;28;20091;-62
2023/08/18 00:37:59;;;;;;;2.67;1.38;;;;;;;;;;20923319;28;20044;-62
2023/08/18 00:48:01;;;;;;;3.30;1.58;;;;;;;;;;20920281;28;20056;-62
2023/08/18 00:58:02;;;;;;;3.28;2.00;;;;;;;;;;20920535;28;20563;-62
2023/08/18 01:08:04;;;;;;;3.13;1.67;;;;;;;;;;20919054;28;20045;-62
2023/08/18 01:18:06;;;;;;;4.60;2.03;;;;;;;;;;20918926;28;20094;-62
2023/08/18 01:28:07;;;;;;;2.15;1.40;;;;;;;;;;20918120;28;20120;-62
2023/08/18 01:38:09;;;;;;;1.98;1.65;;;;;;;;;;20917357;28;20047;-61
2023/08/18 01:48:10;;;;;;;3.55;1.25;;;;;;;;;;20916566;28;20063;-61
2023/08/18 01:58:11;;;;;;;4.82;1.77;;;;;;;;;;20916094;28;20084;-62
2023/08/18 02:08:12;;;;;;;4.40;1.70;;;;;;;;;;20915296;28;20115;-62
2023/08/18 02:18:13;;;;;;;2.03;1.45;;;;;;;;;;20914415;28;20051;-62
2023/08/18 02:28:15;;;;;;;4.57;3.35;;;;;;;;;;20914096;28;20048;-62
2023/08/18 02:38:16;;;;;;;3.60;1.80;;;;;;;;;;20913592;28;20118;-62
2023/08/18 02:48:17;;;;;;;5.20;1.40;;;;;;;;;;20912874;28;20057;-62
2023/08/18 02:58:18;;;;;;;4.53;1.55;;;;;;;;;;20912662;28;20049;-61
2023/08/18 03:08:19;;;;;;;3.90;1.30;;;;;;;;;;20912142;28;20091;-62
2023/08/18 03:18:20;;;;;;;2.45;1.17;;;;;;;;;;20911855;28;20441;-61
2023/08/18 03:28:21;;;;;;;3.47;1.30;;;;;;;;;;20918771;28;20060;-63
2023/08/18 03:38:23;;;;;;;1.95;1.05;;;;;;;;;;20926703;28;20497;-61
2023/08/18 03:48:24;;;;;;;1.85;1.02;;;;;;;;;;20926240;28;20052;-62
2023/08/18 03:58:25;;;;;;;3.70;1.65;;;;;;;;;;20925785;28;20045;-62
2023/08/18 04:08:26;;;;;;;2.20;1.30;;;;;;;;;;20925761;28;20094;-61
2023/08/18 04:18:27;;;;;;;5.00;2.03;;;;;;;;;;20923892;28;20078;-62
2023/08/18 04:28:29;;;;;;;2.28;1.60;;;;;;;;;;20923251;28;20092;-62
2023/08/18 04:38:32;;;;;;;2.53;1.42;;;;;;;;;;20920853;28;20123;-63
2023/08/18 04:48:33;;;;;;;2.35;1.30;;;;;;;;;;20921345;28;20124;-61
2023/08/18 04:58:34;;;;;;;2.53;1.40;;;;;;;;;;20921095;28;20124;-61
2023/08/18 05:08:36;;;;;;;2.38;1.48;;;;;;;;;;20920159;28;20063;-62
2023/08/18 05:18:37;;;;;;;6.47;1.40;;;;;;;;;;20919152;28;20071;-61
2023/08/18 05:28:39;;;;;;;4.30;1.65;;;;;;;;;;20917023;28;20077;-61
2023/08/18 05:38:40;;;;;;;2.55;1.75;;;;;;;;;;20916327;28;20041;-62
2023/08/18 05:48:41;;;;;;;7.60;2.38;;;;;;;;;;20915790;28;20053;-62
2023/08/18 05:58:42;;;;;;;8.02;2.45;;;;;;;;;;20915936;28;20041;-61
2023/08/18 06:08:43;;;;;;;8.90;3.10;;;;;;;;;;20915129;28;20045;-62
2023/08/18 06:18:44;;;;;;;12.70;3.10;;;;;;;;;;20914733;28;20085;-61
2023/08/18 06:28:46;;;;;;;8.05;2.22;;;;;;;;;;20914173;28;20088;-62
2023/08/18 06:38:47;;;;;;;13.20;2.65;;;;;;;;;;20913236;28;20078;-64
2023/08/18 06:48:48;;;;;;;11.13;2.80;;;;;;;;;;20912948;28;20124;-61
2023/08/18 06:58:49;;;;;;;9.88;2.60;;;;;;;;;;20913141;28;20181;-61
2023/08/18 07:08:50;;;;;;;16.08;3.10;;;;;;;;;;20928111;28;20049;-62
2023/08/18 07:18:51;;;;;;;12.18;2.92;;;;;;;;;;20927413;28;20116;-60
2023/08/18 07:28:52;;;;;;;15.30;3.05;;;;;;;;;;20926540;28;20056;-61
2023/08/18 07:38:54;;;;;;;10.07;2.30;;;;;;;;;;20927468;28;20076;-61
2023/08/18 07:48:55;;;;;;;10.05;2.00;;;;;;;;;;20924628;28;20073;-62
2023/08/18 07:58:56;;;;;;;8.93;2.10;;;;;;;;;;20925645;28;20053;-62
2023/08/18 08:08:58;;;;;;;7.75;1.88;;;;;;;;;;20925312;28;20041;-63
2023/08/18 08:18:59;;;;;;;7.05;1.70;;;;;;;;;;20923667;28;20051;-61
2023/08/18 08:29:00;;;;;;;6.43;1.88;;;;;;;;;;20923170;28;20051;-62
2023/08/18 08:39:01;;;;;;;8.68;1.90;;;;;;;;;;20921382;28;20076;-61
2023/08/18 08:49:04;;;;;;;6.75;1.92;;;;;;;;;;20922056;28;20065;-61
2023/08/18 08:59:06;;;;;;;4.88;1.40;;;;;;;;;;20921069;28;20045;-63
2023/08/18 09:09:07;;;;;;;5.20;1.73;;;;;;;;;;20919051;28;20063;-62
2023/08/18 09:19:13;;;;;;;3.13;1.08;;;;;;;;;;20918264;28;20052;-62
2023/08/18 09:29:14;;;;;;;2.67;1.53;;;;;;;;;;20917962;28;20049;-62
2023/08/18 09:39:15;;;;;;;2.50;1.05;;;;;;;;;;20917783;28;20128;-62
2023/08/18 09:49:19;;;;;;;2.28;1.08;;;;;;;;;;20916503;28;20057;-62
2023/08/18 09:59:23;;;;;;;4.30;1.10;;;;;;;;;;20916137;28;20072;-62
2023/08/18 10:09:27;;;;;;;2.20;0.90;;;;;;;;;;20915590;28;20111;-63
2023/08/18 10:20:08;;;;;;;2.95;1.40;;;;;;;;;;20914710;28;20048;-63
2023/08/18 10:30:09;;;;;;;4.47;1.23;;;;;;;;;;20908449;28;20091;-62
2023/08/18 10:40:10;;;;;;;3.38;1.23;;;;;;;;;;20913975;28;20376;-62
2023/08/18 10:50:14;;;;;;;1.40;1.10;;;;;;;;;;20912100;28;20049;-63
2023/08/18 11:00:17;;;;;;;2.17;0.70;;;;;;;;;;20911436;28;20052;-62
2023/08/18 11:10:22;;;;;;;3.97;0.95;;;;;;;;;;20912390;28;20465;-62
2023/08/18 11:20:23;;;;;;;6.07;2.05;;;;;;;;;;20911832;28;20079;-61
2023/08/18 11:30:25;;;;;;;3.58;1.13;;;;;;;;;;20910860;28;20045;-62
2023/08/18 11:40:26;;;;;;;2.17;0.95;;;;;;;;;;20911389;28;20041;-61
2023/08/18 11:50:35;;;;;;;3.50;0.90;;;;;;;;;;20919627;28;20052;-62
2023/08/18 12:00:37;;;;;;;3.80;1.35;;;;;;;;;;20924917;28;20044;-62
2023/08/18 12:10:38;;;;;;;1.55;0.90;;;;;;;;;;20924181;28;20041;-62
2023/08/18 12:20:39;;;;;;;2.45;0.90;;;;;;;;;;20924569;28;20118;-62
2023/08/18 12:30:41;;;;;;;1.38;1.00;;;;;;;;;;20924024;28;20406;-61
2023/08/18 12:40:42;;;;;;;1.55;1.13;;;;;;;;;;20923078;28;20494;-62
2023/08/18 12:50:43;;;;;;;3.83;1.58;;;;;;;;;;20922012;28;20128;-62
2023/08/18 13:00:44;;;;;;;1.50;0.63;;;;;;;;;;20921334;28;20045;-63
2023/08/18 13:10:45;;;;;;;1.38;0.80;;;;;;;;;;20920403;28;20048;-62
2023/08/18 13:20:47;;;;;;;2.10;0.90;;;;;;;;;;20919685;28;20477;-63
2023/08/18 13:30:48;;;;;;;2.80;1.10;;;;;;;;;;20918390;28;20494;-62
2023/08/18 13:40:49;;;;;;;4.00;0.68;;;;;;;;;;20916994;28;20044;-61
2023/08/18 13:50:50;;;;;;;1.27;0.70;;;;;;;;;;20917349;28;20045;-62
2023/08/18 14:00:51;;;;;;;3.65;0.88;;;;;;;;;;20916972;28;20530;-63
2023/08/18 14:10:52;;;;;;;4.40;0.90;;;;;;;;;;20915552;28;20079;-62
2023/08/18 14:20:55;;;;;;;2.47;0.98;;;;;;;;;;20914121;28;20052;-62
2023/08/18 14:30:56;;;;;;;3.22;1.02;;;;;;;;;;20915126;28;20071;-62
2023/08/18 14:40:57;;;;;;;1.30;0.95;;;;;;;;;;20914390;28;20190;-61
2023/08/18 14:50:58;;;;;;;3.00;0.95;;;;;;;;;;20912298;28;20056;-62
2023/08/18 15:00:59;;;;;;;1.13;0.90;;;;;;;;;;20913221;28;20053;-62
2023/08/18 15:11:02;;;;;;;3.20;1.13;;;;;;;;;;20912917;28;20048;-62
2023/08/18 15:21:04;;;;;;;1.30;0.90;;;;;;;;;;20914119;28;20508;-62
2023/08/18 15:31:11;;;;;;;3.65;1.10;;;;;;;;;;20925953;28;20056;-63
2023/08/18 15:41:12;;;;;;;4.20;2.45;;;;;;;;;;20925934;28;20041;-62
2023/08/18 15:51:13;;;;;;;2.20;1.30;;;;;;;;;;20927629;28;20115;-63
2023/08/18 16:01:14;;;;;;;5.13;1.27;;;;;;;;;;20924996;28;20398;-63
2023/08/18 16:11:18;;;;;;;1.88;0.80;;;;;;;;;;20922615;28;20391;-62
2023/08/18 16:21:19;;;;;;;1.33;0.90;;;;;;;;;;20922515;28;20572;-61
2023/08/18 16:31:20;;;;;;;4.38;2.22;;;;;;;;;;20921538;28;20102;-62
2023/08/18 16:41:21;;;;;;;1.40;0.75;;;;;;;;;;20920836;28;20060;-62
2023/08/18 16:51:22;;;;;;;1.65;1.13;;;;;;;;;;20917972;28;20065;-62
2023/08/18 17:01:23;;;;;;;1.05;0.65;;;;;;;;;;20918236;28;20390;-63
2023/08/18 17:11:25;;;;;;;2.03;1.30;;;;;;;;;;20918480;28;20124;-63
2023/08/18 17:21:27;;;;;;;2.40;0.90;;;;;;;;;;20919179;28;20041;-63
2023/08/18 17:31:28;;;;;;;1.10;0.70;;;;;;;;;;20917054;28;20052;-62
2023/08/18 17:41:29;;;;;;;2.03;0.90;;;;;;;;;;20917627;28;20051;-62
2023/08/18 17:51:30;;;;;;;12.82;1.45;;;;;;;;;;20916070;28;20053;-62
2023/08/18 18:01:31;;;;;;;55.03;48.97;;;;;;;;;;20914817;28;20044;-61
2023/08/18 18:11:32;;;;;;;4.70;2.28;;;;;;;;;;20914844;28;20057;-62
2023/08/18 18:21:33;;;;;;;3.45;1.30;;;;;;;;;;20914118;28;20486;-63
2023/08/18 18:31:35;;;;;;;1.92;1.15;;;;;;;;;;20913667;28;20414;-63
2023/08/18 18:41:36;;;;;;;2.42;1.98;;;;;;;;;;20912166;28;20041;-64
2023/08/18 18:51:37;;;;;;;2.47;1.40;;;;;;;;;;20912651;28;20045;-64
2023/08/18 19:01:38;;;;;;;2.55;1.00;;;;;;;;;;20935580;28;20044;-62
2023/08/18 19:11:39;;;;;;;2.28;1.40;;;;;;;;;;20940075;28;20483;-64
2023/08/18 19:21:40;;;;;;;3.92;2.15;;;;;;;;;;20940049;28;20387;-63
2023/08/18 19:31:41;;;;;;;3.72;1.23;;;;;;;;;;20939921;28;20090;-62
2023/08/18 19:41:43;;;;;;;2.20;1.63;;;;;;;;;;20939798;28;20128;-63
2023/08/18 19:51:44;;;;;;;2.33;1.60;;;;;;;;;;20938030;28;20053;-63
2023/08/18 20:01:45;;;;;;;2.75;1.30;;;;;;;;;;20938373;28;20371;-62
2023/08/18 20:11:46;;;;;;;3.28;1.58;;;;;;;;;;20928689;28;20056;-62
2023/08/18 20:21:47;;;;;;;3.05;1.85;;;;;;;;;;20925132;28;20100;-61
2023/08/18 20:31:48;;;;;;;3.22;1.95;;;;;;;;;;20923923;28;20057;-62
2023/08/18 20:41:49;;;;;;;3.70;1.60;;;;;;;;;;20923430;28;20044;-62
2023/08/18 20:51:50;;;;;;;2.22;1.98;;;;;;;;;;20921745;28;20106;-63
2023/08/18 21:01:51;;;;;;;2.47;1.90;;;;;;;;;;20921699;28;20041;-62
2023/08/18 21:11:53;;;;;;;1.98;1.52;;;;;;;;;;20920769;28;20049;-62
2023/08/18 21:21:54;;;;;;;4.35;2.17;;;;;;;;;;20918748;28;20465;-61
2023/08/18 21:31:55;;;;;;;5.32;2.03;;;;;;;;;;20917940;28;20064;-62
2023/08/18 21:41:56;;;;;;;2.30;1.75;;;;;;;;;;20917328;28;20044;-62
2023/08/18 21:51:57;;;;;;;4.40;1.75;;;;;;;;;;20916417;28;20052;-63
2023/08/18 22:01:58;;;;;;;4.10;1.90;;;;;;;;;;20916734;28;20521;-61
2023/08/18 22:11:59;;;;;;;3.65;1.50;;;;;;;;;;20916101;28;20048;-62
2023/08/18 22:22:01;;;;;;;3.42;1.80;;;;;;;;;;20914226;28;20041;-60
2023/08/18 22:32:02;;;;;;;4.15;2.35;;;;;;;;;;20914382;28;20076;-61
2023/08/18 22:42:03;;;;;;;6.47;4.18;;;;;;;;;;20914397;28;20584;-62
2023/08/18 22:52:04;;;;;;;3.60;2.50;;;;;;;;;;20912322;28;20041;-61
2023/08/18 23:02:06;;;;;;;4.22;2.17;;;;;;;;;;20913648;28;20041;-62
2023/08/18 23:12:07;;;;;;;3.35;1.50;;;;;;;;;;20913186;28;20045;-63
2023/08/18 23:22:08;;;;;;;3.85;1.90;;;;;;;;;;20912921;28;20068;-62
2023/08/18 23:32:09;;;;;;;3.40;1.48;;;;;;;;;;20911120;28;20045;-62
2023/08/18 23:42:10;;;;;;;5.78;2.67;;;;;;;;;;20914594;28;20045;-62
2023/08/18 23:52:11;;;;;;;6.32;3.28;;;;;;;;;;20926617;28;20124;-62
